Hyundai Forward — 3EJY9 — position and weather

sailwx.info

Track history (hours):
 
Tides and Currents Weather Stations Pressure Air Temp Water Temp Dewpoint Dewpoint Depression Visibility Wind Speed Wind Dir Waves Ship Positions

Hyundai Forward

Last reported at 2014-Sep-17 09:33 UTC. Time now 2014-Sep-21 08:11 UTC.
Position N 28°48' W 125°32'.

Length 294 m; draft 12.1 m.

Type: Ship (hazmat cat A). MMSI: 372652000.

Date/timePositionNaut miles runAvg speedWind from/ knotsBaromVisibWave heightAir tempDewpointWater temp
2014-Sep-17 09:33N 28°48' W 125°32'1918.0
2014-Sep-17 08:30N 28°35' W 125°17'4418.0
2014-Sep-17 06:04N 28°04' W 124°41'1017.7
2014-Sep-17 05:30N 27°57' W 124°33'5217.6
2014-Sep-17 02:34N 27°20' W 123°52'1817.6
2014-Sep-17 01:31N 27°07' W 123°37'2017.5
2014-Sep-17 00:22N 26°53' W 123°22'1417.5
2014-Sep-16 23:33N 26°43' W 123°10'2217.3
2014-Sep-16 22:18N 26°27' W 122°53'1317.2
2014-Sep-16 21:33N 26°18' W 122°43'1817.4
2014-Sep-16 20:33N 26°06' W 122°30'3517.5
2014-Sep-16 18:33N 25°41' W 122°02'14317.4
2014-Sep-16 10:23N 23°60' W 120°12'  
Track history (hours):
 
Tides and Currents Weather Stations Pressure Air Temp Water Temp Dewpoint Dewpoint Depression Visibility Wind Speed Wind Dir Waves Ship Positions

Hyundai Forward

Last reported at 2014-Sep-17 09:33 UTC. Time now 2014-Sep-21 08:11 UTC.
Position N 28°48' W 125°32'.

Length 294 m; draft 12.1 m.

Type: Ship (hazmat cat A). MMSI: 372652000.

Date/timePositionNaut miles runAvg speedWind from/ knotsBaromVisibWave heightAir tempDewpointWater temp
2014-Sep-17 09:33N 28°48' W 125°32'1918.0
2014-Sep-17 08:30N 28°35' W 125°17'4418.0
2014-Sep-17 06:04N 28°04' W 124°41'1017.7
2014-Sep-17 05:30N 27°57' W 124°33'5217.6
2014-Sep-17 02:34N 27°20' W 123°52'1817.6
2014-Sep-17 01:31N 27°07' W 123°37'2017.5
2014-Sep-17 00:22N 26°53' W 123°22'1417.5
2014-Sep-16 23:33N 26°43' W 123°10'2217.3
2014-Sep-16 22:18N 26°27' W 122°53'1317.2
2014-Sep-16 21:33N 26°18' W 122°43'1817.4
2014-Sep-16 20:33N 26°06' W 122°30'3517.5
2014-Sep-16 18:33N 25°41' W 122°02'14317.4
2014-Sep-16 10:23N 23°60' W 120°12'  

Dump ship's entire track history